»·PEaware :: N117SB KSEA-CYYC

N117SB :: KSEA-CYYC

FLIGHT INFORMATION

Flight Status: Arrived
Operator: Privately registered:
United States
More flights under this callsign
Pilot: Dean S. (16265)
Aircraft: DIAMOND DA-42 TWINSTAR
(DA42)
More flights by this aircraft type
Origin: KSEA Seattle-Tacoma Intl
United States
Destination: CYYC Calgary Intl
Canada
More flights between these airports :: More routes between these airports
Route: +ALPSE YDC MENBO NORET
File this flight plan on PilotEdge
Remarks:
Altitude:
(Current/Filed)
12,500ft
Speed:
(Current/Filed)
170kts
Departed: 14-Feb-18 09:18 AM
Arrived: 14-Feb-18 11:25 AM
Distance/Time
Traveled:
391nm/2:07
Distance/Time
To Go:
Arrived

Flight Plot

Page will automatically refresh every two minutes.

Flight plan parsing failed; only flown route is shown


Map Options




Map Legend


Flown Route
Filed Route
Departure Airport
Arrival Airport
Navaid (VOR, NDB)
Fix

Horizontal Profiles

Position Reports

Time Latitude Longitude Heading Altitude Ground
Speed
14-Feb-18 09:09 47.462238 -122.300279 0 436ft 0kts
14-Feb-18 09:10 47.462238 -122.300279 0 436ft 0kts
14-Feb-18 09:11 47.462238 -122.300279 0 436ft 0kts
14-Feb-18 09:12 47.462238 -122.300279 0 436ft 0kts
14-Feb-18 09:13 47.462238 -122.300279 0 436ft 0kts
14-Feb-18 09:14 47.462238 -122.300279 0 436ft 0kts
14-Feb-18 09:15 47.462238 -122.300279 0 436ft 0kts
14-Feb-18 09:16 47.462238 -122.300279 0 436ft 0kts
14-Feb-18 09:17 47.462238 -122.300279 0 436ft 0kts
14-Feb-18 09:18 47.461741 -122.301128 269 436ft 7kts
14-Feb-18 09:19 47.462095 -122.305033 338 436ft 7kts
14-Feb-18 09:20 47.463338 -122.305841 312 436ft 8kts
14-Feb-18 09:21 47.463691 -122.306429 306 436ft 0kts
14-Feb-18 09:22 47.463692 -122.306431 306 436ft 0kts
14-Feb-18 09:23 47.463693 -122.306433 306 436ft 0kts
14-Feb-18 09:24 47.461931 -122.307777 179 436ft 37kts
14-Feb-18 09:25 47.436927 -122.308258 180 1266ft 93kts
14-Feb-18 09:26 47.411523 -122.308781 180 2514ft 91kts
14-Feb-18 09:27 47.397223 -122.339086 266 2969ft 137kts
14-Feb-18 09:28 47.395438 -122.397340 272 2815ft 148kts
14-Feb-18 09:29 47.427632 -122.431374 337 2438ft 146kts
14-Feb-18 09:30 47.463834 -122.453758 337 2607ft 132kts
14-Feb-18 09:31 47.496992 -122.474319 337 3108ft 128kts
14-Feb-18 09:32 47.531940 -122.494347 356 2949ft 159kts
14-Feb-18 09:33 47.566836 -122.458472 40 2432ft 145kts
14-Feb-18 09:34 47.606582 -122.454286 356 2440ft 156kts
14-Feb-18 09:35 47.646940 -122.434418 32 2436ft 161kts
14-Feb-18 09:36 47.686640 -122.403419 24 2435ft 161kts
14-Feb-18 09:37 47.727687 -122.375827 23 2435ft 161kts
14-Feb-18 09:38 47.767806 -122.349309 23 2808ft 142kts
14-Feb-18 09:39 47.802797 -122.326181 23 3443ft 152kts
14-Feb-18 09:40 47.843515 -122.299252 23 3436ft 163kts
14-Feb-18 09:41 47.879825 -122.275139 21 4642ft 106kts
14-Feb-18 09:42 47.908899 -122.256026 18 5459ft 144kts
14-Feb-18 09:43 47.948862 -122.229403 20 5451ft 161kts
14-Feb-18 09:44 47.986214 -122.204087 17 6442ft 134kts
14-Feb-18 09:45 48.018189 -122.181633 14 7522ft 106kts
14-Feb-18 09:46 48.052571 -122.159693 14 8214ft 132kts
14-Feb-18 09:47 48.085943 -122.137846 14 9410ft 130kts
14-Feb-18 09:48 48.119682 -122.115312 15 10542ft 135kts
14-Feb-18 09:49 48.155352 -122.091479 15 11430ft 153kts
14-Feb-18 09:50 48.193813 -122.047658 37 11437ft 184kts
14-Feb-18 09:51 48.231774 -121.995080 36 11435ft 185kts
14-Feb-18 09:52 48.269931 -121.942864 36 11435ft 186kts
14-Feb-18 09:53 48.308128 -121.890631 36 11435ft 186kts
14-Feb-18 09:54 48.340084 -121.846868 36 11435ft 186kts
14-Feb-18 09:55 48.378257 -121.794493 36 11435ft 186kts
14-Feb-18 09:56 48.422770 -121.733279 36 11435ft 186kts
14-Feb-18 09:57 48.454680 -121.689303 36 11435ft 186kts
14-Feb-18 09:58 48.492792 -121.636678 36 11435ft 186kts
14-Feb-18 09:59 48.531022 -121.583775 36 11435ft 186kts
14-Feb-18 10:00 48.569093 -121.530982 37 11435ft 186kts
14-Feb-18 10:01 48.607148 -121.478096 37 11435ft 186kts
14-Feb-18 10:02 48.645318 -121.424937 37 11435ft 186kts
14-Feb-18 10:03 48.683330 -121.371884 37 11435ft 186kts
14-Feb-18 10:04 48.721446 -121.318570 37 11435ft 186kts
14-Feb-18 10:05 48.759430 -121.265327 37 11435ft 186kts
14-Feb-18 10:06 48.797001 -121.212549 37 11435ft 186kts
14-Feb-18 10:07 48.835438 -121.158438 37 11435ft 186kts
14-Feb-18 10:08 48.873358 -121.104938 37 11435ft 186kts
14-Feb-18 10:09 48.911373 -121.051187 37 11435ft 186kts
14-Feb-18 10:10 48.949241 -120.997528 37 11435ft 186kts
14-Feb-18 10:11 48.986716 -120.943025 37 11435ft 186kts
14-Feb-18 10:12 49.024562 -120.888805 37 11435ft 186kts
14-Feb-18 10:13 49.062353 -120.834853 37 11435ft 186kts
14-Feb-18 10:14 49.100270 -120.780645 37 11435ft 186kts
14-Feb-18 10:15 49.138032 -120.726547 37 11435ft 186kts
14-Feb-18 10:16 49.175769 -120.672364 37 11435ft 186kts
14-Feb-18 10:17 49.213619 -120.617900 37 11435ft 186kts
14-Feb-18 10:18 49.251326 -120.563522 37 11435ft 186kts
14-Feb-18 10:19 49.289002 -120.509068 37 11435ft 186kts
14-Feb-18 10:20 49.326782 -120.454342 37 11435ft 186kts
14-Feb-18 10:21 49.364424 -120.399692 37 11435ft 186kts
14-Feb-18 10:22 49.393123 -120.333181 66 11436ft 192kts
14-Feb-18 10:23 49.412434 -120.256682 65 11435ft 192kts
14-Feb-18 10:24 49.432145 -120.180388 65 11435ft 192kts
14-Feb-18 10:25 49.451989 -120.103881 65 11435ft 192kts
14-Feb-18 10:26 49.471738 -120.027579 65 11435ft 192kts
14-Feb-18 10:27 49.491517 -119.950922 65 11435ft 192kts
14-Feb-18 10:28 49.511173 -119.874488 65 11435ft 192kts
14-Feb-18 10:29 49.530785 -119.797968 65 11435ft 192kts
14-Feb-18 10:30 49.550412 -119.721130 65 11435ft 192kts
14-Feb-18 10:31 49.569925 -119.644480 65 11435ft 192kts
14-Feb-18 10:32 49.589454 -119.567503 65 11435ft 192kts
14-Feb-18 10:33 49.608690 -119.490603 66 11435ft 192kts
14-Feb-18 10:34 49.627710 -119.413501 66 11435ft 192kts
14-Feb-18 10:35 49.647018 -119.336283 66 11435ft 192kts
14-Feb-18 10:36 49.666272 -119.259291 66 11435ft 192kts
14-Feb-18 10:37 49.685556 -119.181961 66 11435ft 192kts
14-Feb-18 10:38 49.704722 -119.104841 66 11435ft 192kts
14-Feb-18 10:39 49.723837 -119.027664 66 11435ft 192kts
14-Feb-18 10:40 49.742975 -118.950123 66 11435ft 192kts
14-Feb-18 10:41 49.761991 -118.872811 66 11435ft 192kts
14-Feb-18 10:42 49.780959 -118.795418 66 11435ft 192kts
14-Feb-18 10:43 49.799945 -118.717683 66 11435ft 192kts
14-Feb-18 10:44 49.818471 -118.639949 67 11435ft 192kts
14-Feb-18 10:45 49.837138 -118.561954 66 11435ft 192kts
14-Feb-18 10:46 49.855870 -118.484260 66 11435ft 192kts
14-Feb-18 10:47 49.874582 -118.406527 66 11435ft 192kts
14-Feb-18 10:48 49.893308 -118.328485 66 11435ft 192kts
14-Feb-18 10:49 49.911924 -118.250624 67 11435ft 192kts
14-Feb-18 10:50 49.930556 -118.172421 67 11435ft 192kts
14-Feb-18 10:51 49.949068 -118.094441 67 11435ft 192kts
14-Feb-18 10:52 49.967531 -118.016386 67 11435ft 192kts
14-Feb-18 10:53 49.986012 -117.937974 67 11435ft 192kts
14-Feb-18 10:54 50.004175 -117.859662 68 11435ft 193kts
14-Feb-18 10:55 50.022231 -117.780946 67 11435ft 193kts
14-Feb-18 10:56 50.040434 -117.702576 67 11435ft 193kts
14-Feb-18 10:57 50.058634 -117.624179 67 11435ft 193kts
14-Feb-18 10:58 50.076850 -117.545466 67 11435ft 193kts
14-Feb-18 10:59 50.094961 -117.466926 67 11435ft 193kts
14-Feb-18 11:00 50.113073 -117.388088 67 11435ft 193kts
14-Feb-18 11:01 50.139415 -117.272906 67 11435ft 193kts
14-Feb-18 11:02 50.175226 -117.115310 67 11435ft 193kts
14-Feb-18 11:03 50.210381 -116.956628 68 11435ft 193kts
14-Feb-18 11:04 50.245749 -116.798540 68 11435ft 193kts
14-Feb-18 11:05 50.281057 -116.639630 68 11435ft 193kts
14-Feb-18 11:06 50.319363 -116.483605 56 11435ft 191kts
14-Feb-18 11:07 50.370467 -116.337583 58 11435ft 191kts
14-Feb-18 11:08 50.411609 -116.182499 66 11435ft 193kts
14-Feb-18 11:09 50.449736 -116.025451 66 11435ft 193kts
14-Feb-18 11:10 50.487808 -115.868244 66 11435ft 193kts
14-Feb-18 11:11 50.525817 -115.710183 66 11435ft 193kts
14-Feb-18 11:12 50.563451 -115.552387 67 11435ft 193kts
14-Feb-18 11:13 50.600524 -115.393471 67 11435ft 193kts
14-Feb-18 11:14 50.637755 -115.235138 67 11435ft 193kts
14-Feb-18 11:15 50.674809 -115.076489 67 11435ft 193kts
14-Feb-18 11:16 50.711766 -114.917077 67 11435ft 193kts
14-Feb-18 11:17 50.747967 -114.757654 67 11435ft 193kts
14-Feb-18 11:18 50.784390 -114.597563 67 11435ft 193kts
14-Feb-18 11:19 50.808379 -114.491935 67 11258ft 202kts
14-Feb-18 11:20 50.828203 -114.404323 68 10367ft 217kts
14-Feb-18 11:21 50.848183 -114.313637 70 9458ft 218kts
14-Feb-18 11:22 50.864404 -114.221859 74 8577ft 215kts
14-Feb-18 11:23 50.878389 -114.133880 72 7691ft 197kts
14-Feb-18 11:24 50.898376 -114.055834 65 7045ft 175kts
14-Feb-18 11:25 50.935774 -114.021926 359 6141ft 156kts
14-Feb-18 11:26 50.972195 -114.020622 358 5889ft 99kts
14-Feb-18 11:27 50.999075 -114.021189 359 5241ft 92kts
14-Feb-18 11:28 51.024917 -114.021189 2 4406ft 88kts
14-Feb-18 11:29 51.047582 -114.021349 0 4126ft 79kts
14-Feb-18 11:30 51.070379 -114.021392 0 3901ft 84kts
14-Feb-18 11:31 51.093567 -114.021532 359 3621ft 80kts
14-Feb-18 11:32 51.110808 -114.021326 0 3560ft 19kts
14-Feb-18 11:33 51.108883 -114.025008 190 3560ft 27kts
14-Feb-18 11:34 51.102586 -114.027095 262 3560ft 9kts
14-Feb-18 11:35 51.102546 -114.032875 257 3560ft 14kts

Navigation Log

Ident Type
Flight plan parsing failed, navigation log unavailable